sensor_id;sensor_type;location;lat;lon;timestamp;P1;durP1;ratioP1;P2;durP2;ratioP2
35048;SDS011;21236;48.740;-3.446;2022-09-02T00:00:33;14.30;;;7.18;;
35048;SDS011;21236;48.740;-3.446;2022-09-02T00:02:59;15.68;;;7.28;;
35048;SDS011;21236;48.740;-3.446;2022-09-02T00:05:25;13.77;;;6.82;;
35048;SDS011;21236;48.740;-3.446;2022-09-02T00:07:51;18.45;;;7.30;;
35048;SDS011;21236;48.740;-3.446;2022-09-02T00:10:18;9.65;;;6.05;;
35048;SDS011;21236;48.740;-3.446;2022-09-02T00:12:45;20.63;;;8.65;;
35048;SDS011;21236;48.740;-3.446;2022-09-02T00:15:11;14.77;;;6.88;;
35048;SDS011;21236;48.740;-3.446;2022-09-02T00:17:38;14.45;;;6.70;;
35048;SDS011;21236;48.740;-3.446;2022-09-02T00:20:04;17.90;;;7.07;;
35048;SDS011;21236;48.740;-3.446;2022-09-02T00:22:31;8.32;;;5.80;;
35048;SDS011;21236;48.740;-3.446;2022-09-02T00:24:57;12.38;;;6.47;;
35048;SDS011;21236;48.740;-3.446;2022-09-02T00:27:23;10.32;;;6.55;;
35048;SDS011;21236;48.740;-3.446;2022-09-02T00:29:49;13.23;;;7.10;;
35048;SDS011;21236;48.740;-3.446;2022-09-02T00:32:15;19.10;;;7.15;;
35048;SDS011;21236;48.740;-3.446;2022-09-02T00:34:44;15.57;;;7.00;;
35048;SDS011;21236;48.740;-3.446;2022-09-02T00:37:10;13.63;;;7.32;;
35048;SDS011;21236;48.740;-3.446;2022-09-02T00:39:37;12.02;;;6.28;;
35048;SDS011;21236;48.740;-3.446;2022-09-02T00:42:03;12.88;;;6.25;;
35048;SDS011;21236;48.740;-3.446;2022-09-02T00:44:31;11.60;;;6.97;;
35048;SDS011;21236;48.740;-3.446;2022-09-02T00:46:58;9.23;;;6.60;;
35048;SDS011;21236;48.740;-3.446;2022-09-02T00:49:29;9.32;;;6.78;;
35048;SDS011;21236;48.740;-3.446;2022-09-02T00:51:58;14.75;;;7.05;;
35048;SDS011;21236;48.740;-3.446;2022-09-02T00:54:26;18.27;;;7.10;;
35048;SDS011;21236;48.740;-3.446;2022-09-02T00:56:54;14.63;;;6.68;;
35048;SDS011;21236;48.740;-3.446;2022-09-02T00:59:34;14.13;;;6.15;;
35048;SDS011;21236;48.740;-3.446;2022-09-02T01:02:03;11.93;;;6.75;;
35048;SDS011;21236;48.740;-3.446;2022-09-02T01:04:31;11.88;;;6.47;;
35048;SDS011;21236;48.740;-3.446;2022-09-02T01:06:57;12.30;;;6.28;;
35048;SDS011;21236;48.740;-3.446;2022-09-02T01:09:23;12.63;;;6.47;;
35048;SDS011;21236;48.740;-3.446;2022-09-02T01:11:49;21.25;;;7.07;;
35048;SDS011;21236;48.740;-3.446;2022-09-02T01:14:17;16.65;;;7.13;;
35048;SDS011;21236;48.740;-3.446;2022-09-02T01:16:48;15.98;;;6.68;;
35048;SDS011;21236;48.740;-3.446;2022-09-02T01:19:16;15.10;;;7.15;;
35048;SDS011;21236;48.740;-3.446;2022-09-02T01:21:47;10.50;;;7.00;;
35048;SDS011;21236;48.740;-3.446;2022-09-02T01:24:13;14.88;;;6.93;;
35048;SDS011;21236;48.740;-3.446;2022-09-02T01:26:39;12.93;;;7.35;;
35048;SDS011;21236;48.740;-3.446;2022-09-02T01:29:05;13.73;;;6.68;;
35048;SDS011;21236;48.740;-3.446;2022-09-02T01:31:31;10.90;;;7.07;;
35048;SDS011;21236;48.740;-3.446;2022-09-02T01:33:58;10.85;;;6.78;;
35048;SDS011;21236;48.740;-3.446;2022-09-02T01:36:25;11.80;;;7.63;;
35048;SDS011;21236;48.740;-3.446;2022-09-02T01:38:51;13.13;;;7.20;;
35048;SDS011;21236;48.740;-3.446;2022-09-02T01:41:17;13.20;;;6.82;;
35048;SDS011;21236;48.740;-3.446;2022-09-02T01:43:43;11.02;;;7.18;;
35048;SDS011;21236;48.740;-3.446;2022-09-02T01:46:09;9.80;;;7.15;;
35048;SDS011;21236;48.740;-3.446;2022-09-02T01:48:35;10.75;;;6.88;;
35048;SDS011;21236;48.740;-3.446;2022-09-02T01:51:02;17.88;;;7.32;;
35048;SDS011;21236;48.740;-3.446;2022-09-02T01:53:29;12.50;;;6.43;;
35048;SDS011;21236;48.740;-3.446;2022-09-02T01:55:57;14.35;;;6.90;;
35048;SDS011;21236;48.740;-3.446;2022-09-02T01:58:23;12.43;;;6.57;;
35048;SDS011;21236;48.740;-3.446;2022-09-02T02:00:49;14.30;;;7.05;;
35048;SDS011;21236;48.740;-3.446;2022-09-02T02:03:16;13.57;;;7.00;;
35048;SDS011;21236;48.740;-3.446;2022-09-02T02:05:42;8.90;;;6.60;;
35048;SDS011;21236;48.740;-3.446;2022-09-02T02:08:12;8.93;;;6.32;;
35048;SDS011;21236;48.740;-3.446;2022-09-02T02:10:40;9.90;;;6.93;;
35048;SDS011;21236;48.740;-3.446;2022-09-02T02:13:07;12.35;;;6.30;;
35048;SDS011;21236;48.740;-3.446;2022-09-02T02:15:35;15.13;;;6.53;;
35048;SDS011;21236;48.740;-3.446;2022-09-02T02:18:02;12.10;;;6.28;;
35048;SDS011;21236;48.740;-3.446;2022-09-02T02:20:28;11.15;;;6.25;;
35048;SDS011;21236;48.740;-3.446;2022-09-02T02:22:55;12.10;;;6.57;;
35048;SDS011;21236;48.740;-3.446;2022-09-02T02:25:21;12.77;;;6.30;;
35048;SDS011;21236;48.740;-3.446;2022-09-02T02:27:51;13.48;;;6.72;;
35048;SDS011;21236;48.740;-3.446;2022-09-02T02:30:17;11.45;;;6.78;;
35048;SDS011;21236;48.740;-3.446;2022-09-02T02:32:44;13.30;;;6.78;;
35048;SDS011;21236;48.740;-3.446;2022-09-02T02:35:16;13.50;;;7.10;;
35048;SDS011;21236;48.740;-3.446;2022-09-02T02:37:43;12.95;;;6.55;;
35048;SDS011;21236;48.740;-3.446;2022-09-02T02:40:13;13.50;;;6.43;;
35048;SDS011;21236;48.740;-3.446;2022-09-02T02:42:40;11.23;;;6.38;;
35048;SDS011;21236;48.740;-3.446;2022-09-02T02:45:06;13.30;;;7.07;;
35048;SDS011;21236;48.740;-3.446;2022-09-02T02:47:34;15.18;;;7.63;;
35048;SDS011;21236;48.740;-3.446;2022-09-02T02:50:01;18.45;;;8.38;;
35048;SDS011;21236;48.740;-3.446;2022-09-02T02:52:28;13.73;;;9.05;;
35048;SDS011;21236;48.740;-3.446;2022-09-02T02:54:54;16.27;;;8.88;;
35048;SDS011;21236;48.740;-3.446;2022-09-02T02:57:20;18.00;;;10.07;;
35048;SDS011;21236;48.740;-3.446;2022-09-02T02:59:46;20.05;;;11.35;;
35048;SDS011;21236;48.740;-3.446;2022-09-02T03:02:12;17.00;;;10.68;;
35048;SDS011;21236;48.740;-3.446;2022-09-02T03:04:38;17.73;;;10.20;;
35048;SDS011;21236;48.740;-3.446;2022-09-02T03:07:05;21.65;;;11.20;;
35048;SDS011;21236;48.740;-3.446;2022-09-02T03:09:32;21.95;;;10.98;;
35048;SDS011;21236;48.740;-3.446;2022-09-02T03:11:58;15.23;;;9.52;;
35048;SDS011;21236;48.740;-3.446;2022-09-02T03:14:25;15.05;;;7.78;;
35048;SDS011;21236;48.740;-3.446;2022-09-02T03:16:51;14.98;;;8.48;;
35048;SDS011;21236;48.740;-3.446;2022-09-02T03:19:18;14.98;;;8.68;;
35048;SDS011;21236;48.740;-3.446;2022-09-02T03:21:44;18.45;;;8.18;;
35048;SDS011;21236;48.740;-3.446;2022-09-02T03:24:11;14.07;;;8.80;;
35048;SDS011;21236;48.740;-3.446;2022-09-02T03:26:38;14.93;;;8.40;;
35048;SDS011;21236;48.740;-3.446;2022-09-02T03:29:05;18.15;;;9.13;;
35048;SDS011;21236;48.740;-3.446;2022-09-02T03:31:32;17.23;;;8.77;;
35048;SDS011;21236;48.740;-3.446;2022-09-02T03:33:58;15.20;;;8.70;;
35048;SDS011;21236;48.740;-3.446;2022-09-02T03:36:27;15.20;;;8.57;;
35048;SDS011;21236;48.740;-3.446;2022-09-02T03:38:55;14.55;;;7.85;;
35048;SDS011;21236;48.740;-3.446;2022-09-02T03:41:22;16.23;;;8.77;;
35048;SDS011;21236;48.740;-3.446;2022-09-02T03:43:49;19.73;;;9.07;;
35048;SDS011;21236;48.740;-3.446;2022-09-02T03:46:15;15.60;;;8.90;;
35048;SDS011;21236;48.740;-3.446;2022-09-02T03:48:43;12.05;;;7.90;;
35048;SDS011;21236;48.740;-3.446;2022-09-02T03:51:11;15.27;;;8.88;;
35048;SDS011;21236;48.740;-3.446;2022-09-02T03:53:38;18.35;;;8.60;;
35048;SDS011;21236;48.740;-3.446;2022-09-02T03:56:05;14.73;;;8.45;;
35048;SDS011;21236;48.740;-3.446;2022-09-02T03:58:33;15.20;;;8.27;;
35048;SDS011;21236;48.740;-3.446;2022-09-02T04:01:01;16.90;;;9.20;;
35048;SDS011;21236;48.740;-3.446;2022-09-02T04:03:29;20.20;;;10.18;;
35048;SDS011;21236;48.740;-3.446;2022-09-02T04:05:56;18.70;;;9.82;;
35048;SDS011;21236;48.740;-3.446;2022-09-02T04:08:25;26.35;;;10.38;;
35048;SDS011;21236;48.740;-3.446;2022-09-02T04:10:54;22.33;;;9.30;;
35048;SDS011;21236;48.740;-3.446;2022-09-02T04:13:20;23.35;;;9.18;;
35048;SDS011;21236;48.740;-3.446;2022-09-02T04:15:47;24.85;;;10.55;;
35048;SDS011;21236;48.740;-3.446;2022-09-02T04:18:15;30.23;;;10.32;;
35048;SDS011;21236;48.740;-3.446;2022-09-02T04:20:42;18.60;;;9.45;;
35048;SDS011;21236;48.740;-3.446;2022-09-02T04:23:08;22.83;;;9.90;;
35048;SDS011;21236;48.740;-3.446;2022-09-02T04:25:42;26.25;;;9.60;;
35048;SDS011;21236;48.740;-3.446;2022-09-02T04:28:10;27.15;;;9.07;;
35048;SDS011;21236;48.740;-3.446;2022-09-02T04:30:38;22.73;;;9.00;;
35048;SDS011;21236;48.740;-3.446;2022-09-02T04:33:05;21.77;;;9.18;;
35048;SDS011;21236;48.740;-3.446;2022-09-02T04:35:31;19.90;;;7.93;;
35048;SDS011;21236;48.740;-3.446;2022-09-02T04:37:59;17.35;;;8.35;;
35048;SDS011;21236;48.740;-3.446;2022-09-02T04:40:26;28.77;;;8.80;;
35048;SDS011;21236;48.740;-3.446;2022-09-02T04:42:53;23.35;;;9.35;;
35048;SDS011;21236;48.740;-3.446;2022-09-02T04:45:19;17.60;;;8.77;;
35048;SDS011;21236;48.740;-3.446;2022-09-02T04:47:46;21.48;;;8.73;;
35048;SDS011;21236;48.740;-3.446;2022-09-02T04:50:13;28.38;;;9.45;;
35048;SDS011;21236;48.740;-3.446;2022-09-02T04:52:55;21.50;;;9.43;;
35048;SDS011;21236;48.740;-3.446;2022-09-02T04:55:22;23.92;;;9.35;;
35048;SDS011;21236;48.740;-3.446;2022-09-02T04:57:50;27.30;;;10.73;;
35048;SDS011;21236;48.740;-3.446;2022-09-02T05:00:16;19.80;;;9.38;;
35048;SDS011;21236;48.740;-3.446;2022-09-02T05:02:46;17.35;;;9.15;;
35048;SDS011;21236;48.740;-3.446;2022-09-02T05:05:13;20.75;;;9.90;;
35048;SDS011;21236;48.740;-3.446;2022-09-02T05:07:40;28.58;;;11.13;;
35048;SDS011;21236;48.740;-3.446;2022-09-02T05:10:07;24.90;;;10.00;;
35048;SDS011;21236;48.740;-3.446;2022-09-02T05:12:37;19.25;;;9.57;;
35048;SDS011;21236;48.740;-3.446;2022-09-02T05:15:05;17.42;;;9.48;;
35048;SDS011;21236;48.740;-3.446;2022-09-02T05:17:33;23.13;;;11.57;;
35048;SDS011;21236;48.740;-3.446;2022-09-02T05:20:02;17.50;;;10.93;;
35048;SDS011;21236;48.740;-3.446;2022-09-02T05:22:30;29.05;;;10.95;;
35048;SDS011;21236;48.740;-3.446;2022-09-02T05:24:58;21.98;;;10.82;;
35048;SDS011;21236;48.740;-3.446;2022-09-02T05:27:26;28.13;;;10.65;;
35048;SDS011;21236;48.740;-3.446;2022-09-02T05:29:53;14.63;;;9.70;;
35048;SDS011;21236;48.740;-3.446;2022-09-02T05:32:20;20.42;;;10.68;;
35048;SDS011;21236;48.740;-3.446;2022-09-02T05:34:49;18.95;;;9.90;;
35048;SDS011;21236;48.740;-3.446;2022-09-02T05:37:15;31.48;;;12.05;;
35048;SDS011;21236;48.740;-3.446;2022-09-02T05:39:41;22.77;;;10.70;;
35048;SDS011;21236;48.740;-3.446;2022-09-02T05:42:08;19.35;;;11.23;;
35048;SDS011;21236;48.740;-3.446;2022-09-02T05:44:35;27.05;;;10.48;;
35048;SDS011;21236;48.740;-3.446;2022-09-02T05:47:02;25.15;;;10.80;;
35048;SDS011;21236;48.740;-3.446;2022-09-02T05:49:30;19.80;;;11.05;;
35048;SDS011;21236;48.740;-3.446;2022-09-02T05:52:04;22.40;;;11.65;;
35048;SDS011;21236;48.740;-3.446;2022-09-02T05:54:40;21.08;;;10.82;;
35048;SDS011;21236;48.740;-3.446;2022-09-02T05:57:12;21.40;;;11.52;;
35048;SDS011;21236;48.740;-3.446;2022-09-02T05:59:43;24.80;;;12.68;;
35048;SDS011;21236;48.740;-3.446;2022-09-02T06:02:14;24.45;;;12.75;;
35048;SDS011;21236;48.740;-3.446;2022-09-02T06:04:43;37.47;;;14.68;;
35048;SDS011;21236;48.740;-3.446;2022-09-02T06:07:11;26.35;;;13.85;;
35048;SDS011;21236;48.740;-3.446;2022-09-02T06:09:38;21.42;;;13.35;;
35048;SDS011;21236;48.740;-3.446;2022-09-02T06:12:06;23.60;;;14.27;;
35048;SDS011;21236;48.740;-3.446;2022-09-02T06:14:34;22.75;;;15.48;;
35048;SDS011;21236;48.740;-3.446;2022-09-02T06:17:04;23.98;;;13.95;;
35048;SDS011;21236;48.740;-3.446;2022-09-02T06:19:50;27.60;;;15.65;;
35048;SDS011;21236;48.740;-3.446;2022-09-02T06:22:17;33.50;;;18.23;;
35048;SDS011;21236;48.740;-3.446;2022-09-02T06:24:45;34.92;;;18.58;;
35048;SDS011;21236;48.740;-3.446;2022-09-02T06:27:17;32.58;;;17.98;;
35048;SDS011;21236;48.740;-3.446;2022-09-02T06:29:47;43.38;;;19.30;;
35048;SDS011;21236;48.740;-3.446;2022-09-02T06:32:18;36.13;;;18.27;;
35048;SDS011;21236;48.740;-3.446;2022-09-02T06:34:45;34.38;;;19.67;;
35048;SDS011;21236;48.740;-3.446;2022-09-02T06:37:14;37.75;;;19.38;;
35048;SDS011;21236;48.740;-3.446;2022-09-02T06:39:40;40.55;;;20.13;;
35048;SDS011;21236;48.740;-3.446;2022-09-02T06:42:10;31.15;;;19.95;;
35048;SDS011;21236;48.740;-3.446;2022-09-02T06:44:45;30.38;;;19.35;;
35048;SDS011;21236;48.740;-3.446;2022-09-02T06:47:11;28.60;;;18.10;;
35048;SDS011;21236;48.740;-3.446;2022-09-02T06:49:37;36.97;;;19.45;;
35048;SDS011;21236;48.740;-3.446;2022-09-02T06:52:04;30.75;;;19.25;;
35048;SDS011;21236;48.740;-3.446;2022-09-02T06:54:34;30.90;;;18.13;;
35048;SDS011;21236;48.740;-3.446;2022-09-02T06:57:08;26.33;;;16.63;;
35048;SDS011;21236;48.740;-3.446;2022-09-02T06:59:36;30.17;;;15.65;;
35048;SDS011;21236;48.740;-3.446;2022-09-02T07:02:03;30.92;;;16.65;;
35048;SDS011;21236;48.740;-3.446;2022-09-02T07:04:30;31.20;;;17.08;;
35048;SDS011;21236;48.740;-3.446;2022-09-02T07:07:18;25.67;;;16.70;;
35048;SDS011;21236;48.740;-3.446;2022-09-02T07:09:55;28.27;;;17.10;;
35048;SDS011;21236;48.740;-3.446;2022-09-02T07:12:22;29.08;;;15.50;;
35048;SDS011;21236;48.740;-3.446;2022-09-02T07:14:56;34.60;;;16.98;;
35048;SDS011;21236;48.740;-3.446;2022-09-02T07:17:27;37.83;;;19.53;;
35048;SDS011;21236;48.740;-3.446;2022-09-02T07:19:59;32.72;;;20.08;;
35048;SDS011;21236;48.740;-3.446;2022-09-02T07:22:28;40.47;;;20.70;;
35048;SDS011;21236;48.740;-3.446;2022-09-02T07:24:55;33.08;;;21.00;;
35048;SDS011;21236;48.740;-3.446;2022-09-02T07:27:24;34.60;;;19.77;;
35048;SDS011;21236;48.740;-3.446;2022-09-02T07:29:50;36.90;;;19.85;;
35048;SDS011;21236;48.740;-3.446;2022-09-02T07:32:17;35.70;;;20.55;;
35048;SDS011;21236;48.740;-3.446;2022-09-02T07:34:43;30.05;;;19.38;;
35048;SDS011;21236;48.740;-3.446;2022-09-02T07:37:12;27.63;;;19.10;;
35048;SDS011;21236;48.740;-3.446;2022-09-02T07:39:40;37.13;;;19.90;;
35048;SDS011;21236;48.740;-3.446;2022-09-02T07:42:09;29.10;;;18.85;;
35048;SDS011;21236;48.740;-3.446;2022-09-02T07:44:35;29.20;;;17.80;;
35048;SDS011;21236;48.740;-3.446;2022-09-02T07:47:03;28.67;;;18.15;;
35048;SDS011;21236;48.740;-3.446;2022-09-02T07:49:31;33.15;;;17.60;;
35048;SDS011;21236;48.740;-3.446;2022-09-02T07:51:58;26.52;;;16.50;;
35048;SDS011;21236;48.740;-3.446;2022-09-02T07:54:24;27.77;;;17.00;;
35048;SDS011;21236;48.740;-3.446;2022-09-02T07:56:52;27.00;;;16.73;;
35048;SDS011;21236;48.740;-3.446;2022-09-02T07:59:18;26.13;;;16.58;;
35048;SDS011;21236;48.740;-3.446;2022-09-02T08:01:48;23.30;;;15.40;;
35048;SDS011;21236;48.740;-3.446;2022-09-02T08:04:16;27.40;;;15.68;;
35048;SDS011;21236;48.740;-3.446;2022-09-02T08:06:43;30.95;;;16.02;;
35048;SDS011;21236;48.740;-3.446;2022-09-02T08:09:10;27.38;;;16.20;;
35048;SDS011;21236;48.740;-3.446;2022-09-02T08:11:40;24.13;;;14.82;;
35048;SDS011;21236;48.740;-3.446;2022-09-02T08:14:07;22.23;;;14.07;;
35048;SDS011;21236;48.740;-3.446;2022-09-02T08:16:34;22.13;;;16.00;;
35048;SDS011;21236;48.740;-3.446;2022-09-02T08:19:01;23.92;;;15.15;;
35048;SDS011;21236;48.740;-3.446;2022-09-02T08:21:27;25.75;;;15.80;;
35048;SDS011;21236;48.740;-3.446;2022-09-02T08:23:53;25.88;;;14.60;;
35048;SDS011;21236;48.740;-3.446;2022-09-02T08:26:23;21.88;;;14.07;;
35048;SDS011;21236;48.740;-3.446;2022-09-02T08:28:52;25.67;;;15.48;;
35048;SDS011;21236;48.740;-3.446;2022-09-02T08:31:18;19.67;;;13.80;;
35048;SDS011;21236;48.740;-3.446;2022-09-02T08:33:45;20.38;;;14.30;;
35048;SDS011;21236;48.740;-3.446;2022-09-02T08:36:11;25.33;;;15.25;;
35048;SDS011;21236;48.740;-3.446;2022-09-02T08:38:39;27.13;;;13.80;;
35048;SDS011;21236;48.740;-3.446;2022-09-02T08:43:47;19.77;;;13.23;;
35048;SDS011;21236;48.740;-3.446;2022-09-02T08:46:15;21.55;;;13.48;;
35048;SDS011;21236;48.740;-3.446;2022-09-02T08:51:10;18.33;;;11.73;;
35048;SDS011;21236;48.740;-3.446;2022-09-02T08:53:41;17.95;;;12.05;;
35048;SDS011;21236;48.740;-3.446;2022-09-02T08:56:10;19.92;;;10.75;;
35048;SDS011;21236;48.740;-3.446;2022-09-02T08:58:40;16.63;;;11.48;;
35048;SDS011;21236;48.740;-3.446;2022-09-02T09:01:28;23.17;;;11.57;;
35048;SDS011;21236;48.740;-3.446;2022-09-02T09:04:17;17.25;;;10.27;;
35048;SDS011;21236;48.740;-3.446;2022-09-02T09:12:17;17.95;;;10.93;;
35048;SDS011;21236;48.740;-3.446;2022-09-02T09:14:48;21.50;;;11.57;;
35048;SDS011;21236;48.740;-3.446;2022-09-02T09:17:24;18.38;;;11.88;;
35048;SDS011;21236;48.740;-3.446;2022-09-02T09:19:52;22.88;;;11.40;;
35048;SDS011;21236;48.740;-3.446;2022-09-02T09:22:19;16.55;;;10.77;;
35048;SDS011;21236;48.740;-3.446;2022-09-02T09:24:46;16.77;;;10.18;;
35048;SDS011;21236;48.740;-3.446;2022-09-02T09:27:14;13.23;;;10.15;;
35048;SDS011;21236;48.740;-3.446;2022-09-02T09:29:41;15.00;;;10.15;;
35048;SDS011;21236;48.740;-3.446;2022-09-02T09:32:11;16.15;;;9.93;;
35048;SDS011;21236;48.740;-3.446;2022-09-02T09:37:39;15.07;;;9.88;;
35048;SDS011;21236;48.740;-3.446;2022-09-02T09:45:35;18.25;;;10.63;;
35048;SDS011;21236;48.740;-3.446;2022-09-02T09:50:31;14.63;;;10.25;;
35048;SDS011;21236;48.740;-3.446;2022-09-02T09:55:56;16.00;;;9.90;;
35048;SDS011;21236;48.740;-3.446;2022-09-02T09:58:24;19.17;;;11.57;;
35048;SDS011;21236;48.740;-3.446;2022-09-02T10:00:51;15.85;;;9.68;;
35048;SDS011;21236;48.740;-3.446;2022-09-02T10:03:22;14.90;;;10.77;;
35048;SDS011;21236;48.740;-3.446;2022-09-02T10:05:53;28.05;;;12.30;;
35048;SDS011;21236;48.740;-3.446;2022-09-02T10:08:21;18.75;;;12.23;;
35048;SDS011;21236;48.740;-3.446;2022-09-02T10:13:34;19.48;;;13.35;;
35048;SDS011;21236;48.740;-3.446;2022-09-02T10:16:45;22.85;;;13.48;;
35048;SDS011;21236;48.740;-3.446;2022-09-02T10:26:47;19.48;;;13.50;;
35048;SDS011;21236;48.740;-3.446;2022-09-02T10:31:50;20.83;;;9.65;;
35048;SDS011;21236;48.740;-3.446;2022-09-02T10:37:05;27.52;;;15.48;;
35048;SDS011;21236;48.740;-3.446;2022-09-02T10:45:09;29.42;;;17.70;;
35048;SDS011;21236;48.740;-3.446;2022-09-02T10:47:37;32.50;;;19.45;;
35048;SDS011;21236;48.740;-3.446;2022-09-02T10:58:09;26.95;;;16.40;;
35048;SDS011;21236;48.740;-3.446;2022-09-02T11:00:39;23.70;;;14.48;;
35048;SDS011;21236;48.740;-3.446;2022-09-02T11:10:55;20.15;;;12.27;;
35048;SDS011;21236;48.740;-3.446;2022-09-02T11:13:27;28.20;;;14.90;;
35048;SDS011;21236;48.740;-3.446;2022-09-02T11:15:58;22.52;;;14.05;;
35048;SDS011;21236;48.740;-3.446;2022-09-02T11:18:31;28.17;;;17.00;;
35048;SDS011;21236;48.740;-3.446;2022-09-02T11:23:43;32.78;;;14.98;;
35048;SDS011;21236;48.740;-3.446;2022-09-02T11:26:19;22.70;;;14.13;;
35048;SDS011;21236;48.740;-3.446;2022-09-02T11:34:18;32.30;;;14.82;;
35048;SDS011;21236;48.740;-3.446;2022-09-02T11:36:45;25.90;;;14.63;;
35048;SDS011;21236;48.740;-3.446;2022-09-02T11:39:16;34.55;;;19.65;;
35048;SDS011;21236;48.740;-3.446;2022-09-02T11:41:59;25.67;;;16.77;;
35048;SDS011;21236;48.740;-3.446;2022-09-02T11:52:24;30.83;;;16.65;;
35048;SDS011;21236;48.740;-3.446;2022-09-02T11:54:58;30.73;;;16.85;;
35048;SDS011;21236;48.740;-3.446;2022-09-02T11:57:25;29.45;;;16.33;;
35048;SDS011;21236;48.740;-3.446;2022-09-02T12:07:47;32.13;;;18.42;;
35048;SDS011;21236;48.740;-3.446;2022-09-02T12:15:27;32.45;;;16.63;;
35048;SDS011;21236;48.740;-3.446;2022-09-02T12:23:01;26.58;;;14.32;;
35048;SDS011;21236;48.740;-3.446;2022-09-02T12:35:59;22.45;;;13.45;;
35048;SDS011;21236;48.740;-3.446;2022-09-02T12:38:26;26.63;;;14.25;;
35048;SDS011;21236;48.740;-3.446;2022-09-02T12:43:32;24.05;;;14.57;;
35048;SDS011;21236;48.740;-3.446;2022-09-02T12:46:12;21.23;;;12.30;;
35048;SDS011;21236;48.740;-3.446;2022-09-02T12:48:43;23.30;;;12.73;;
35048;SDS011;21236;48.740;-3.446;2022-09-02T12:51:49;21.73;;;13.00;;
35048;SDS011;21236;48.740;-3.446;2022-09-02T12:54:00;28.73;;;16.60;;
35048;SDS011;21236;48.740;-3.446;2022-09-02T12:56:26;21.67;;;12.48;;
35048;SDS011;21236;48.740;-3.446;2022-09-02T12:58:53;21.13;;;12.68;;
35048;SDS011;21236;48.740;-3.446;2022-09-02T13:14:11;26.45;;;13.50;;
35048;SDS011;21236;48.740;-3.446;2022-09-02T13:22:17;25.35;;;15.05;;
35048;SDS011;21236;48.740;-3.446;2022-09-02T13:28:14;26.25;;;15.48;;
35048;SDS011;21236;48.740;-3.446;2022-09-02T13:30:20;29.52;;;16.88;;
35048;SDS011;21236;48.740;-3.446;2022-09-02T13:32:54;37.17;;;17.23;;
35048;SDS011;21236;48.740;-3.446;2022-09-02T13:35:23;24.58;;;16.25;;
35048;SDS011;21236;48.740;-3.446;2022-09-02T13:37:57;34.60;;;17.65;;
35048;SDS011;21236;48.740;-3.446;2022-09-02T13:42:51;25.45;;;15.32;;
35048;SDS011;21236;48.740;-3.446;2022-09-02T13:45:19;25.08;;;15.43;;
35048;SDS011;21236;48.740;-3.446;2022-09-02T13:47:47;29.90;;;17.30;;
35048;SDS011;21236;48.740;-3.446;2022-09-02T13:50:16;28.63;;;15.68;;
35048;SDS011;21236;48.740;-3.446;2022-09-02T13:52:43;26.77;;;16.33;;
35048;SDS011;21236;48.740;-3.446;2022-09-02T13:55:11;29.05;;;16.63;;
35048;SDS011;21236;48.740;-3.446;2022-09-02T13:57:38;25.13;;;14.73;;
35048;SDS011;21236;48.740;-3.446;2022-09-02T14:00:08;24.05;;;15.25;;
35048;SDS011;21236;48.740;-3.446;2022-09-02T14:02:37;26.02;;;17.23;;
35048;SDS011;21236;48.740;-3.446;2022-09-02T14:05:05;28.27;;;15.32;;
35048;SDS011;21236;48.740;-3.446;2022-09-02T14:07:34;25.70;;;15.32;;
35048;SDS011;21236;48.740;-3.446;2022-09-02T14:10:02;26.45;;;15.68;;
35048;SDS011;21236;48.740;-3.446;2022-09-02T14:12:30;22.70;;;13.25;;
35048;SDS011;21236;48.740;-3.446;2022-09-02T14:14:57;25.95;;;14.85;;
35048;SDS011;21236;48.740;-3.446;2022-09-02T14:17:24;26.92;;;14.18;;
35048;SDS011;21236;48.740;-3.446;2022-09-02T14:19:54;30.85;;;14.98;;
35048;SDS011;21236;48.740;-3.446;2022-09-02T14:22:33;28.63;;;14.60;;
35048;SDS011;21236;48.740;-3.446;2022-09-02T14:25:06;26.67;;;13.73;;
35048;SDS011;21236;48.740;-3.446;2022-09-02T14:29:58;29.83;;;14.90;;
35048;SDS011;21236;48.740;-3.446;2022-09-02T14:32:27;24.48;;;12.93;;
35048;SDS011;21236;48.740;-3.446;2022-09-02T14:37:53;24.25;;;12.85;;
35048;SDS011;21236;48.740;-3.446;2022-09-02T14:41:24;26.67;;;14.45;;
35048;SDS011;21236;48.740;-3.446;2022-09-02T14:43:18;24.40;;;13.40;;
35048;SDS011;21236;48.740;-3.446;2022-09-02T14:45:46;27.88;;;15.52;;
35048;SDS011;21236;48.740;-3.446;2022-09-02T14:48:22;24.52;;;12.65;;
35048;SDS011;21236;48.740;-3.446;2022-09-02T14:50:56;25.15;;;14.00;;
35048;SDS011;21236;48.740;-3.446;2022-09-02T14:53:22;23.70;;;13.40;;
35048;SDS011;21236;48.740;-3.446;2022-09-02T14:55:53;26.45;;;12.82;;
35048;SDS011;21236;48.740;-3.446;2022-09-02T14:58:20;20.95;;;14.02;;
35048;SDS011;21236;48.740;-3.446;2022-09-02T15:00:50;26.55;;;13.43;;
35048;SDS011;21236;48.740;-3.446;2022-09-02T15:03:18;20.35;;;12.70;;
35048;SDS011;21236;48.740;-3.446;2022-09-02T15:05:44;21.45;;;13.05;;
35048;SDS011;21236;48.740;-3.446;2022-09-02T15:08:11;26.75;;;14.57;;
35048;SDS011;21236;48.740;-3.446;2022-09-02T15:10:38;23.45;;;15.63;;
35048;SDS011;21236;48.740;-3.446;2022-09-02T15:13:05;26.50;;;15.95;;
35048;SDS011;21236;48.740;-3.446;2022-09-02T15:15:32;25.33;;;14.57;;
35048;SDS011;21236;48.740;-3.446;2022-09-02T15:17:58;21.63;;;15.30;;
35048;SDS011;21236;48.740;-3.446;2022-09-02T15:20:24;30.58;;;16.30;;
35048;SDS011;21236;48.740;-3.446;2022-09-02T15:22:52;23.55;;;14.63;;
35048;SDS011;21236;48.740;-3.446;2022-09-02T15:25:18;22.92;;;14.98;;
35048;SDS011;21236;48.740;-3.446;2022-09-02T15:27:47;23.90;;;15.93;;
35048;SDS011;21236;48.740;-3.446;2022-09-02T15:30:13;27.17;;;16.13;;
35048;SDS011;21236;48.740;-3.446;2022-09-02T15:32:43;29.58;;;17.35;;
35048;SDS011;21236;48.740;-3.446;2022-09-02T15:35:09;27.08;;;15.93;;
35048;SDS011;21236;48.740;-3.446;2022-09-02T15:37:35;28.90;;;15.88;;
35048;SDS011;21236;48.740;-3.446;2022-09-02T15:40:06;24.65;;;15.18;;
35048;SDS011;21236;48.740;-3.446;2022-09-02T15:42:34;26.92;;;15.68;;
35048;SDS011;21236;48.740;-3.446;2022-09-02T15:45:00;26.05;;;17.08;;
35048;SDS011;21236;48.740;-3.446;2022-09-02T15:47:27;27.52;;;17.85;;
35048;SDS011;21236;48.740;-3.446;2022-09-02T15:49:55;30.45;;;17.00;;
35048;SDS011;21236;48.740;-3.446;2022-09-02T15:52:22;25.38;;;16.83;;
35048;SDS011;21236;48.740;-3.446;2022-09-02T15:54:49;27.15;;;18.42;;
35048;SDS011;21236;48.740;-3.446;2022-09-02T15:57:15;26.20;;;17.27;;
35048;SDS011;21236;48.740;-3.446;2022-09-02T15:59:41;27.23;;;16.40;;
35048;SDS011;21236;48.740;-3.446;2022-09-02T16:02:10;26.35;;;17.65;;
35048;SDS011;21236;48.740;-3.446;2022-09-02T16:04:37;28.38;;;19.02;;
35048;SDS011;21236;48.740;-3.446;2022-09-02T16:07:03;34.40;;;22.38;;
35048;SDS011;21236;48.740;-3.446;2022-09-02T16:09:33;31.70;;;18.90;;
35048;SDS011;21236;48.740;-3.446;2022-09-02T16:11:59;29.90;;;19.02;;
35048;SDS011;21236;48.740;-3.446;2022-09-02T16:14:25;34.35;;;19.27;;
35048;SDS011;21236;48.740;-3.446;2022-09-02T16:16:53;31.45;;;19.80;;
35048;SDS011;21236;48.740;-3.446;2022-09-02T16:19:20;29.40;;;20.02;;
35048;SDS011;21236;48.740;-3.446;2022-09-02T16:21:47;34.55;;;19.98;;
35048;SDS011;21236;48.740;-3.446;2022-09-02T16:24:13;29.30;;;19.38;;
35048;SDS011;21236;48.740;-3.446;2022-09-02T16:26:43;33.65;;;17.67;;
35048;SDS011;21236;48.740;-3.446;2022-09-02T16:29:12;33.17;;;18.13;;
35048;SDS011;21236;48.740;-3.446;2022-09-02T16:31:41;37.38;;;18.85;;
35048;SDS011;21236;48.740;-3.446;2022-09-02T16:34:08;55.05;;;18.23;;
35048;SDS011;21236;48.740;-3.446;2022-09-02T16:36:36;39.17;;;17.38;;
35048;SDS011;21236;48.740;-3.446;2022-09-02T16:39:02;34.60;;;18.02;;